96D

Walhalla Municipal Airport

Walhalla, North Dakota, USA
METAR K96D 161215Z AUTO 28014KT 10SM M01/M06 A2998 RMK AO2
Observed Flight Rules
Dec-16 @ 12:15 UTC (30 minutes ago)
Wind Visibility
280° at 14 knots 10 miles
Temperatures Readings
Current -1°C / 30°F
Dewpoint -6°C / 21°F
Humidity 69%
Altimeter 29.98" Hg
Pressure 1015 hPa
Elevation 290
METAR K96D 161215Z AUTO 28014KT 10SM M01/M06 A2998 RMK AO2
Observed Flight Rules
Dec-16 @ 12:15 UTC
(30 minutes ago)
Wind Visibility
280° at 14 knots 10 miles
Temperature Dewpoint
-1°C / 30°F -6°C / 21°F
Humidity Altimeter Pressure
69% 29.98" Hg 1015 hPa